Bellwood, Alabama
Current Conditions -  °F | °C
As of 1:58 AM on Tuesday 27 Jan 2015 (Local Time) from KOZR Reporting Station
Clear Clear  
Wind Chill: 36°   Ceiling: Unl
Heat Index: 36°   Visibility: 8mi
Dew Point: 31°   Wind: 2mph
Humidity: 82%   Direction: 310°NW
Pressure: 30"   Gusts: NA
Location:  31.17°N, 85.79°W
Report Text: KOZR 270758Z AUTO 31002KT 8SM CLR 02/00 A3000 RMK AO2 SLP163 T00241004 RVRNO
Loading
Personal Weather Stations






























Interactive Weather Map New forecast layout! Learn more

10-Day Weather Forecast

Advertisements
Track Severe Weather on mobile